Time;durP1;ratioP1;P1;durP2;ratioP2;P2;SDS_P1;SDS_P2;PMS_P1;PMS_P2;Temp;Humidity;BMP_temperature;BMP_pressure;BME280_temperature;BME280_humidity;BME280_pressure;Samples;Min_cycle;Max_cycle;Signal;HPM_P1;HPM_P2
2024/04/12 00:02:02;;;;;;;;;;;;;;;18.38;51.44;103085.31;5107494;28;19949;-91
2024/04/12 00:04:27;;;;;;;;;;;;;;;18.30;52.08;103080.25;5109365;28;19915;-92
2024/04/12 00:06:59;;;;;;;;;;;;;;;18.26;52.31;103081.81;5108376;28;19920;-91
2024/04/12 00:09:29;;;;;;;;;;;;;;;18.21;52.22;103076.31;5105718;28;19919;-92
2024/04/12 00:12:00;;;;;;;;;;;;;;;18.20;51.77;103061.09;5107788;28;19994;-91
2024/04/12 00:14:25;;;;;;;;;;;;;;;18.14;52.33;103067.50;5109613;28;19963;-92
2024/04/12 00:16:52;;;;;;;;;;;;;;;18.12;52.63;103064.16;5103752;28;19966;-91
2024/04/12 00:19:19;;;;;;;;;;;;;;;18.08;52.61;103054.88;5107393;28;19919;-91
2024/04/12 00:21:46;;;;;;;;;;;;;;;18.05;52.82;103060.78;5109007;28;19919;-91
2024/04/12 00:24:14;;;;;;;;;;;;;;;18.02;52.88;103069.41;5106424;28;19923;-91
2024/04/12 00:26:43;;;;;;;;;;;;;;;17.99;52.89;103067.19;5105039;28;19924;-92
2024/04/12 00:29:25;;;;;;;;;;;;;;;17.97;52.97;103072.03;5109748;28;20015;-92
2024/04/12 00:32:03;;;;;;;;;;;;;;;17.95;53.33;103074.16;5104906;28;19920;-92
2024/04/12 00:34:37;;;;;;;;;;;;;;;17.92;53.25;103067.31;5107720;28;20028;-92
2024/04/12 00:37:07;;;;;;;;;;;;;;;17.89;53.41;103067.81;5102954;28;20064;-91
2024/04/12 00:39:36;;;;;;;;;;;;;;;17.86;53.49;103071.00;5102636;28;20025;-92
2024/04/12 00:42:08;;;;;;;;;;;;;;;17.83;53.53;103081.50;5101950;28;19920;-91
2024/04/12 00:44:39;;;;;;;;;;;;;;;17.78;53.39;103080.34;5101769;28;19920;-92
2024/04/12 00:47:10;;;;;;;;;;;;;;;17.74;53.55;103076.44;5107393;28;19985;-90
2024/04/12 00:49:36;;;;;;;;;;;;;;;17.73;53.62;103077.50;5111193;28;19931;-91
2024/04/12 00:52:02;;;;;;;;;;;;;;;17.72;53.75;103075.03;5104276;28;19927;-91
2024/04/12 00:54:32;;;;;;;;;;;;;;;17.70;53.73;103075.28;5109863;28;19912;-92
2024/04/12 00:56:58;;;;;;;;;;;;;;;17.68;53.95;103073.88;5105764;28;19923;-92
2024/04/12 00:59:24;;;;;;;;;;;;;;;17.68;53.68;103066.56;5102391;28;19964;-91
2024/04/12 01:01:52;;;;;;;;;;;;;;;17.65;54.06;103069.72;5116934;27;19924;-91
2024/04/12 01:04:20;;;;;;;;;;;;;;;17.61;54.00;103056.91;5107143;28;19933;-91
2024/04/12 01:06:49;;;;;;;;;;;;;;;17.56;54.01;103056.78;5102262;28;20026;-92
2024/04/12 01:09:21;;;;;;;;;;;;;;;17.49;54.37;103060.44;5106722;28;19920;-91
2024/04/12 01:11:47;;;;;;;;;;;;;;;17.42;54.43;103059.75;5118825;27;19918;-91
2024/04/12 01:14:13;;;;;;;;;;;;;;;17.39;54.52;103064.81;5106395;28;19954;-91
2024/04/12 01:16:42;;;;;;;;;;;;;;;17.36;54.93;103065.28;5107080;28;19951;-91
2024/04/12 01:19:12;;;;;;;;;;;;;;;17.33;55.04;103049.50;5108386;28;19926;-92
2024/04/12 01:21:38;;;;;;;;;;;;;;;17.31;55.07;103052.47;5102785;28;20073;-91
2024/04/12 01:24:06;;;;;;;;;;;;;;;17.27;55.09;103051.28;5109444;27;19934;-92
2024/04/12 01:26:31;;;;;;;;;;;;;;;17.26;55.09;103048.81;5105187;28;19920;-90
2024/04/12 01:28:58;;;;;;;;;;;;;;;17.24;55.10;103051.78;5103063;28;19920;-91
2024/04/12 01:31:27;;;;;;;;;;;;;;;17.27;55.08;103062.13;5108207;28;19916;-91
2024/04/12 01:33:52;;;;;;;;;;;;;;;17.23;55.19;103060.94;5101758;28;19924;-91
2024/04/12 01:36:21;;;;;;;;;;;;;;;17.20;55.57;103051.41;5104354;28;19926;-91
2024/04/12 01:38:53;;;;;;;;;;;;;;;17.16;55.49;103044.81;5099701;28;19926;-91
2024/04/12 01:41:34;;;;;;;;;;;;;;;17.08;55.85;103050.59;5084658;28;20294;-91
2024/04/12 01:44:08;;;;;;;;;;;;;;;17.02;56.22;103046.09;5086803;28;20395;-90
2024/04/12 01:46:35;;;;;;;;;;;;;;;16.95;56.60;103053.53;5087750;28;19920;-92
2024/04/12 01:49:00;;;;;;;;;;;;;;;16.92;56.53;103054.81;5099815;27;19916;-91
2024/04/12 01:51:26;;;;;;;;;;;;;;;16.93;56.79;103058.34;5088041;28;19923;-91
2024/04/12 01:53:55;;;;;;;;;;;;;;;16.94;57.04;103065.41;5086112;28;19925;-91
2024/04/12 01:56:22;;;;;;;;;;;;;;;16.96;57.10;103063.31;5086827;28;20379;-91
2024/04/12 01:58:48;;;;;;;;;;;;;;;16.98;56.91;103057.66;5091172;28;19923;-91
2024/04/12 02:01:16;;;;;;;;;;;;;;;16.99;56.87;103059.28;5088600;28;20029;-91
2024/04/12 02:03:43;;;;;;;;;;;;;;;17.02;56.99;103059.66;5087673;28;19924;-91
2024/04/12 02:06:16;;;;;;;;;;;;;;;17.05;57.22;103066.47;5087783;28;19946;-91
2024/04/12 02:08:41;;;;;;;;;;;;;;;17.07;57.22;103065.19;5085612;28;19916;-91
2024/04/12 02:11:07;;;;;;;;;;;;;;;17.07;57.46;103061.66;5085093;28;19923;-92
2024/04/12 02:13:38;;;;;;;;;;;;;;;17.06;57.56;103058.13;5088391;28;19959;-92
2024/04/12 02:16:04;;;;;;;;;;;;;;;17.07;56.88;103056.25;5083279;28;20026;-91
2024/04/12 02:18:32;;;;;;;;;;;;;;;17.05;57.63;103053.75;5082634;28;19916;-91
2024/04/12 02:21:10;;;;;;;;;;;;;;;17.05;57.31;103064.59;5085686;28;20449;-91
2024/04/12 02:23:38;;;;;;;;;;;;;;;17.05;57.68;103064.59;5086157;28;20500;-91
2024/04/12 02:26:09;;;;;;;;;;;;;;;17.06;57.50;103071.69;5087014;28;19916;-91
2024/04/12 02:28:36;;;;;;;;;;;;;;;17.05;57.71;103080.00;5082454;28;19924;-91
2024/04/12 02:31:08;;;;;;;;;;;;;;;17.03;58.18;103065.88;5086001;28;19920;-91
2024/04/12 02:33:33;;;;;;;;;;;;;;;17.04;58.03;103076.47;5081699;28;20006;-91
2024/04/12 02:36:00;;;;;;;;;;;;;;;17.03;57.95;103077.53;5087524;28;19923;-92
2024/04/12 02:38:26;;;;;;;;;;;;;;;17.06;57.35;103078.97;5082491;28;20396;-91
2024/04/12 02:40:52;;;;;;;;;;;;;;;17.03;58.13;103077.53;5087865;28;19916;-92
2024/04/12 02:43:18;;;;;;;;;;;;;;;17.04;57.89;103079.19;5086430;28;19924;-91
2024/04/12 02:47:41;;;;;;;;;;;;;;;17.06;58.50;103071.69;5480811;25;20373;-88
2024/04/12 02:50:10;;;;;;;;;;;;;;;17.08;58.11;103074.16;5435165;26;19941;-89
2024/04/12 02:52:35;;;;;;;;;;;;;;;17.07;58.21;103067.91;5405601;26;20054;-89
2024/04/12 02:55:00;;;;;;;;;;;;;;;17.11;58.25;103062.84;5407218;26;19933;-87
2024/04/12 02:57:28;;;;;;;;;;;;;;;17.14;58.43;103065.91;5410705;26;21376;-87
2024/04/12 02:59:53;;;;;;;;;;;;;;;17.14;58.45;103065.91;5409841;26;20383;-87
2024/04/12 03:02:19;;;;;;;;;;;;;;;17.17;58.38;103062.72;5410896;26;20006;-88
2024/04/12 03:04:44;;;;;;;;;;;;;;;17.17;58.55;103065.41;5403110;26;20286;-87
2024/04/12 03:07:12;;;;;;;;;;;;;;;17.18;58.83;103069.78;5402283;26;19990;-87
2024/04/12 03:09:40;;;;;;;;;;;;;;;17.19;58.40;103071.44;5405905;26;20412;-87
2024/04/12 03:12:06;;;;;;;;;;;;;;;17.19;58.30;103068.72;5437759;26;20357;-87
2024/04/12 03:14:32;;;;;;;;;;;;;;;17.17;59.28;103068.13;5408694;26;19929;-87
2024/04/12 03:16:57;;;;;;;;;;;;;;;17.16;58.83;103066.47;5406436;26;19949;-88
2024/04/12 03:19:22;;;;;;;;;;;;;;;17.17;59.20;103062.72;5401738;26;19973;-87
2024/04/12 03:21:50;;;;;;;;;;;;;;;17.18;58.93;103066.25;5418314;26;19962;-87
2024/04/12 03:24:15;;;;;;;;;;;;;;;17.19;58.82;103074.13;5438929;26;19930;-87
2024/04/12 03:26:53;;;;;;;;;;;;;;;;;;;;;
2024/04/12 03:29:29;;;;;;;;;;;;;;;17.15;59.42;103062.13;5406806;26;19937;-87
2024/04/12 03:31:57;;;;;;;;;;;;;;;17.14;59.49;103059.66;5413434;26;19928;-87
2024/04/12 03:34:24;;;;;;;;;;;;;;;17.11;59.70;103054.72;5417848;26;19942;-86
2024/04/12 03:41:47;;;;;;;;;;;;;;;17.08;60.49;103053.31;5407042;26;19937;-87
2024/04/12 03:44:13;;;;;;;;;;;;;;;17.09;59.90;103054.94;5406248;26;19929;-87
2024/04/12 03:46:42;;;;;;;;;;;;;;;17.11;60.26;103052.00;5406847;26;19936;-87
2024/04/12 03:49:09;;;;;;;;;;;;;;;17.10;60.06;103056.59;5406722;26;19935;-87
2024/04/12 03:51:40;;;;;;;;;;;;;;;17.08;60.87;103049.78;5407182;26;19960;-87
2024/04/12 03:54:10;;;;;;;;;;;;;;;17.10;60.43;103053.88;5403285;26;19937;-88
2024/04/12 03:56:36;;;;;;;;;;;;;;;17.11;61.16;103057.41;5403248;26;19975;-87
2024/04/12 03:59:02;;;;;;;;;;;;;;;17.10;61.44;103053.88;5409043;26;19933;-87
2024/04/12 04:01:31;;;;;;;;;;;;;;;17.13;60.91;103055.31;5406716;26;19932;-87
2024/04/12 04:03:57;;;;;;;;;;;;;;;17.13;61.52;103052.59;5393208;26;19929;-87
2024/04/12 04:06:22;;;;;;;;;;;;;;;17.14;61.45;103052.34;5398346;26;20738;-88
2024/04/12 04:08:48;;;;;;;;;;;;;;;17.15;62.03;103050.47;5402662;26;19978;-87
2024/04/12 04:11:16;;;;;;;;;;;;;;;17.15;61.83;103054.00;5400496;26;19937;-87
2024/04/12 04:13:41;;;;;;;;;;;;;;;17.17;61.43;103048.34;5411077;26;19936;-87
2024/04/12 04:16:07;;;;;;;;;;;;;;;17.18;61.70;103052.69;5399799;26;19929;-87
2024/04/12 04:18:50;;;;;;;;;;;;;;;17.15;62.40;103048.59;5402343;26;19937;-88
2024/04/12 04:21:38;;;;;;;;;;;;;;;;;;;;;
2024/04/12 04:27:09;;;;;;;;;;;;;;;17.19;62.46;103054.34;5367566;26;19972;-87
2024/04/12 04:30:25;;;;;;;;;;;;;;;17.19;62.25;103055.16;5395992;26;20048;-87
2024/04/12 04:32:45;;;;;;;;;;;;;;;17.22;62.42;103046.56;5397558;26;19940;-87
2024/04/12 04:35:11;;;;;;;;;;;;;;;17.18;63.35;103048.09;5408712;26;20005;-87
2024/04/12 04:37:39;;;;;;;;;;;;;;;17.20;62.77;103054.09;5387819;26;19983;-88
2024/04/12 04:40:20;;;;;;;;;;;;;;;17.20;62.86;103047.88;5384737;26;19929;-88
2024/04/12 04:43:05;;;;;;;;;;;;;;;17.21;63.50;103046.81;5395477;26;19940;-87
2024/04/12 04:51:49;;;;;;;;;;;;;;;17.16;63.86;103038.56;5289065;26;20042;-88
2024/04/12 04:54:15;;;;;;;;;;;;;;;17.21;64.68;103046.81;5388536;26;19941;-87
2024/04/12 04:56:41;;;;;;;;;;;;;;;17.21;64.74;103049.50;5389607;26;19929;-87
2024/04/12 04:59:07;;;;;;;;;;;;;;;17.24;64.70;103046.34;5393733;26;19980;-87
2024/04/12 05:01:34;;;;;;;;;;;;;;;17.25;64.90;103041.75;5385901;26;20329;-89
2024/04/12 05:03:59;;;;;;;;;;;;;;;17.28;64.38;103042.09;5394231;26;19929;-87
2024/04/12 05:06:25;;;;;;;;;;;;;;;17.29;64.57;103037.50;5425101;26;20041;-88
2024/04/12 05:09:00;;;;;;;;;;;;;;;17.29;65.39;103029.38;5387729;26;20369;-88
2024/04/12 05:11:29;;;;;;;;;;;;;;;17.26;64.87;103027.97;5389447;26;19929;-88
2024/04/12 05:13:55;;;;;;;;;;;;;;;17.27;65.04;103029.63;5389250;26;19936;-86
2024/04/12 05:16:44;;;;;;;;;;;;;;;17.31;64.97;103025.38;5393892;26;20244;-86
2024/04/12 05:19:19;;;;;;;;;;;;;;;17.34;65.38;103035.72;5394618;26;19969;-87
2024/04/12 05:21:59;;;;;;;;;;;;;;;17.38;65.91;103031.47;5396811;26;19936;-87
2024/04/12 05:24:43;;;;;;;;;;;;;;;17.41;65.18;103035.59;5401578;26;19929;-87
2024/04/12 05:27:32;;;;;;;;;;;;;;;17.40;65.39;103032.06;5402792;26;19986;-86
2024/04/12 05:30:13;;;;;;;;;;;;;;;17.43;65.60;103038.91;5408508;26;19933;-87
2024/04/12 05:32:56;;;;;;;;;;;;;;;17.44;65.44;103041.38;5409132;26;19978;-87
2024/04/12 05:35:30;;;;;;;;;;;;;;;17.48;65.53;103039.00;5403632;26;20371;-87
2024/04/12 05:41:13;;;;;;;;;;;;;;;17.50;65.21;103045.84;5341464;26;20441;-87
2024/04/12 05:43:38;;;;;;;;;;;;;;;17.52;65.23;103041.00;5399840;26;20378;-87
2024/04/12 05:46:05;;;;;;;;;;;;;;;17.55;66.06;103042.41;5398473;26;19941;-87
2024/04/12 05:49:08;;;;;;;;;;;;;;;17.57;65.97;103040.28;5395435;26;20569;-87
2024/04/12 05:51:35;;;;;;;;;;;;;;;17.55;66.44;103042.41;5428870;26;19930;-86
2024/04/12 05:54:10;;;;;;;;;;;;;;;17.60;66.06;103047.94;5398643;26;19932;-87
2024/04/12 05:56:42;;;;;;;;;;;;;;;17.59;66.15;103040.84;5393696;26;19937;-87
2024/04/12 05:59:14;;;;;;;;;;;;;;;17.59;66.75;103038.13;5395193;26;19929;-87
2024/04/12 06:01:43;;;;;;;;;;;;;;;17.63;66.80;103044.75;5399139;26;20374;-87
2024/04/12 06:04:11;;;;;;;;;;;;;;;17.64;66.31;103038.25;5394077;26;19999;-88
2024/04/12 06:06:41;;;;;;;;;;;;;;;17.65;66.37;103047.22;5390922;26;19965;-88
2024/04/12 06:09:06;;;;;;;;;;;;;;;17.65;66.61;103036.38;5390640;26;19935;-86
2024/04/12 06:11:31;;;;;;;;;;;;;;;17.69;66.70;103038.41;5388344;26;19929;-88
2024/04/12 06:14:02;;;;;;;;;;;;;;;17.73;66.43;103036.03;5422397;26;19945;-87
2024/04/12 06:16:27;;;;;;;;;;;;;;;17.76;66.58;103033.66;5390952;26;19948;-87
2024/04/12 06:18:58;;;;;;;;;;;;;;;17.82;66.79;103026.47;5387634;26;19929;-87
2024/04/12 06:21:23;;;;;;;;;;;;;;;17.86;66.64;103037.63;5390965;26;19937;-87
2024/04/12 06:23:54;;;;;;;;;;;;;;;17.91;66.51;103035.00;5392803;26;19959;-87
2024/04/12 06:26:22;;;;;;;;;;;;;;;17.93;66.70;103028.28;5391296;26;19930;-86
2024/04/12 06:28:48;;;;;;;;;;;;;;;17.97;65.84;103034.88;5391871;26;20274;-87
2024/04/12 06:31:19;;;;;;;;;;;;;;;17.98;66.65;103031.13;5391120;26;20363;-87
2024/04/12 06:33:45;;;;;;;;;;;;;;;17.99;66.13;103031.94;5398686;26;20266;-87
2024/04/12 06:36:13;;;;;;;;;;;;;;;18.01;67.16;103027.91;5391570;26;19937;-87
2024/04/12 06:43:49;;;;;;;;;;;;;;;18.12;66.91;103031.63;5296133;21;19972;-91
2024/04/12 06:46:14;;;;;;;;;;;;;;;18.14;66.37;103031.41;5243417;27;19931;-91
2024/04/12 06:48:42;;;;;;;;;;;;;;;18.15;66.16;103025.72;5239004;27;19932;-90
2024/04/12 06:51:11;;;;;;;;;;;;;;;18.14;66.59;103026.81;5241965;27;19932;-91
2024/04/12 06:53:41;;;;;;;;;;;;;;;18.17;66.31;103026.31;5229158;27;20389;-91
2024/04/12 06:56:11;;;;;;;;;;;;;;;18.19;66.18;103032.31;5244950;27;19935;-90
2024/04/12 06:58:40;;;;;;;;;;;;;;;18.21;66.66;103032.88;5246017;27;20007;-91
2024/04/12 07:01:06;;;;;;;;;;;;;;;18.27;66.28;103034.63;5225876;27;20033;-90
2024/04/12 07:03:34;;;;;;;;;;;;;;;18.34;66.02;103040.72;5239013;27;20405;-89
2024/04/12 07:06:01;;;;;;;;;;;;;;;18.36;65.91;103044.00;5230550;27;19970;-90
2024/04/12 07:08:27;;;;;;;;;;;;;;;18.39;66.12;103042.69;5234887;27;19982;-89
2024/04/12 07:10:52;;;;;;;;;;;;;;;18.40;66.33;103041.63;5253956;27;19931;-89
2024/04/12 07:13:21;;;;;;;;;;;;;;;18.45;65.72;103049.03;5230185;27;19940;-91
2024/04/12 07:15:49;;;;;;;;;;;;;;;18.45;66.25;103046.31;5238460;27;19939;-90
2024/04/12 07:18:15;;;;;;;;;;;;;;;18.47;66.36;103046.88;5238892;27;19940;-90
2024/04/12 07:20:44;;;;;;;;;;;;;;;18.49;65.68;103036.59;5247082;27;19958;-91
2024/04/12 07:23:10;;;;;;;;;;;;;;;18.51;65.69;103042.63;5238034;27;19939;-91
2024/04/12 07:25:39;;;;;;;;;;;;;;;18.50;65.55;103049.13;5235202;27;19932;-90
2024/04/12 07:28:06;;;;;;;;;;;;;;;18.51;65.50;103053.50;5244887;27;19932;-90
2024/04/12 07:30:32;;;;;;;;;;;;;;;18.50;65.61;103052.69;5239296;27;19939;-91
2024/04/12 07:32:58;;;;;;;;;;;;;;;18.50;65.49;103049.13;5231438;27;19932;-91
2024/04/12 07:35:28;;;;;;;;;;;;;;;18.49;65.46;103055.59;5249956;27;19940;-91
2024/04/12 07:37:59;;;;;;;;;;;;;;;18.48;64.97;103062.94;5216502;27;19931;-89
2024/04/12 07:40:25;;;;;;;;;;;;;;;18.49;65.13;103050.19;5241725;27;20772;-88
2024/04/12 07:42:52;;;;;;;;;;;;;;;18.55;64.81;103055.47;5243814;27;19931;-91
2024/04/12 07:45:23;;;;;;;;;;;;;;;18.62;64.29;103047.97;5241452;27;19939;-88
2024/04/12 07:50:41;;;;;;;;;;;;;;;18.74;64.10;103053.38;5248370;27;20388;-90
2024/04/12 07:53:22;;;;;;;;;;;;;;;18.77;64.28;103044.72;5243102;27;19932;-89
2024/04/12 07:56:24;;;;;;;;;;;;;;;18.82;64.09;103042.06;5238678;27;19939;-89
2024/04/12 07:58:43;;;;;;;;;;;;;;;18.87;63.64;103042.19;5237430;27;20546;-88
2024/04/12 08:01:18;;;;;;;;;;;;;;;18.88;64.12;103041.09;5232533;27;19932;-89
2024/04/12 08:03:56;;;;;;;;;;;;;;;18.88;63.43;103041.09;5235606;27;19940;-88
2024/04/12 08:06:36;;;;;;;;;;;;;;;18.91;63.44;103037.06;5249874;27;19931;-90
2024/04/12 08:09:04;;;;;;;;;;;;;;;18.97;63.55;103039.59;5242368;27;19931;-90
2024/04/12 08:11:34;;;;;;;;;;;;;;;19.07;63.29;103040.84;5242105;27;19942;-88
2024/04/12 08:14:05;;;;;;;;;;;;;;;19.12;63.15;103035.47;5213982;27;19945;-88
2024/04/12 08:16:36;;;;;;;;;;;;;;;19.18;62.72;103018.16;5245318;27;19964;-87
2024/04/12 08:19:15;;;;;;;;;;;;;;;19.17;62.45;103021.94;5247078;27;20737;-87
2024/04/12 08:21:43;;;;;;;;;;;;;;;19.19;62.79;103019.78;5217233;27;19942;-89
2024/04/12 08:24:14;;;;;;;;;;;;;;;19.24;62.44;103022.59;5243828;27;19963;-87
2024/04/12 08:26:46;;;;;;;;;;;;;;;19.27;62.58;103022.91;5232961;27;19960;-89
2024/04/12 08:29:20;;;;;;;;;;;;;;;19.33;62.45;103015.66;5236332;27;19942;-91
2024/04/12 08:31:47;;;;;;;;;;;;;;;19.40;62.52;103016.31;5245617;27;19978;-92
2024/04/12 08:34:14;;;;;;;;;;;;;;;19.49;62.31;103014.75;5243194;27;19932;-90
2024/04/12 08:36:39;;;;;;;;;;;;;;;19.60;61.74;103011.13;5238148;27;19939;-89
2024/04/12 08:39:50;;;;;;;;;;;;;;;19.64;61.30;103007.91;5257771;27;20373;-89
2024/04/12 08:41:59;;;;;;;;;;;;;;;19.66;60.64;103016.63;5226171;27;19939;-85
2024/04/12 08:44:25;;;;;;;;;;;;;;;19.59;60.97;103014.94;5243497;27;19990;-88
2024/04/12 08:46:51;;;;;;;;;;;;;;;19.65;60.71;103006.81;5241263;27;20492;-90
2024/04/12 08:49:17;;;;;;;;;;;;;;;19.68;60.57;103017.19;5233144;27;19932;-88
2024/04/12 08:51:46;;;;;;;;;;;;;;;19.69;60.32;103018.84;5212697;27;20528;-84
2024/04/12 08:54:14;;;;;;;;;;;;;;;19.70;59.89;103015.84;5254694;27;19978;-86
2024/04/12 08:56:40;;;;;;;;;;;;;;;19.71;59.99;103000.38;5247690;27;19939;-82
2024/04/12 08:59:05;;;;;;;;;;;;;;;19.76;60.12;103003.97;5241725;27;19968;-84
2024/04/12 09:01:31;;;;;;;;;;;;;;;19.83;59.99;103003.78;5243919;27;19980;-87
2024/04/12 09:04:03;;;;;;;;;;;;;;;19.90;59.89;103010.63;5234186;27;19931;-87
2024/04/12 09:06:29;;;;;;;;;;;;;;;19.89;59.48;103000.00;5247333;27;20277;-89
2024/04/12 09:08:54;;;;;;;;;;;;;;;19.95;59.24;103004.44;5243561;27;19935;-90
2024/04/12 09:11:25;;;;;;;;;;;;;;;19.97;58.99;102999.56;5243187;27;19932;-91
2024/04/12 09:13:51;;;;;;;;;;;;;;;20.03;58.76;102993.09;5237190;27;19932;-88
2024/04/12 09:16:19;;;;;;;;;;;;;;;20.04;58.79;102996.63;5239592;27;19949;-90
2024/04/12 09:18:51;;;;;;;;;;;;;;;20.08;58.78;103001.28;5213256;27;19939;-87
2024/04/12 09:21:29;;;;;;;;;;;;;;;20.12;58.59;103002.44;5241293;27;19948;-86
2024/04/12 09:23:58;;;;;;;;;;;;;;;20.15;58.13;103001.09;5235747;27;19950;-86
2024/04/12 09:26:24;;;;;;;;;;;;;;;20.11;58.24;102992.66;5240770;27;19931;-86
2024/04/12 09:28:51;;;;;;;;;;;;;;;20.11;58.15;102989.94;5250182;27;19950;-90
2024/04/12 09:34:22;;;;;;;;;;;;;;;20.05;57.98;102981.94;5242863;27;19939;-88
2024/04/12 09:37:01;;;;;;;;;;;;;;;20.03;58.27;102987.66;5250280;27;19931;-92
2024/04/12 09:39:41;;;;;;;;;;;;;;;20.05;58.38;102984.66;5244332;27;19936;-89
2024/04/12 09:42:08;;;;;;;;;;;;;;;20.10;58.18;102971.91;5240061;27;19983;-89
2024/04/12 09:44:48;;;;;;;;;;;;;;;20.11;58.07;102984.47;5236527;27;19938;-90
2024/04/12 10:39:44;;;;;;;;;;;;;;;20.21;57.35;102946.44;5235508;27;20395;-87
2024/04/12 10:42:09;;;;;;;;;;;;;;;20.30;57.06;102949.53;5240548;27;19944;-91
2024/04/12 10:44:35;;;;;;;;;;;;;;;20.32;57.03;102936.47;5246687;27;21433;-86
2024/04/12 10:47:00;;;;;;;;;;;;;;;20.38;57.07;102935.41;5238296;27;19938;-91
2024/04/12 10:49:25;;;;;;;;;;;;;;;20.45;56.72;102933.31;5241212;27;19931;-88
2024/04/12 10:51:52;;;;;;;;;;;;;;;20.54;56.47;102920.03;5238275;27;20005;-87
2024/04/12 10:54:23;;;;;;;;;;;;;;;20.56;56.22;102934.22;5238963;27;19955;-89
2024/04/12 10:56:49;;;;;;;;;;;;;;;20.49;55.89;102926.28;5233362;27;19931;-91
2024/04/12 10:59:41;;;;;;;;;;;;;;;20.46;55.93;102921.34;5236980;27;20255;-91
2024/04/12 11:02:00;;;;;;;;;;;;;;;20.49;56.08;102920.84;5244237;27;20598;-90
2024/04/12 11:04:28;;;;;;;;;;;;;;;20.53;55.87;102918.41;5237655;27;19939;-90
2024/04/12 11:06:54;;;;;;;;;;;;;;;20.48;55.49;102902.03;5249052;27;19942;-90
2024/04/12 11:09:30;;;;;;;;;;;;;;;20.49;55.62;102920.03;5237676;27;19932;-92
2024/04/12 11:12:00;;;;;;;;;;;;;;;20.48;55.65;102900.13;5242981;27;19968;-88
2024/04/12 11:14:27;;;;;;;;;;;;;;;20.52;55.74;102901.25;5237626;27;19983;-89
2024/04/12 11:31:14;;;;;;;;;;;;;;;20.47;55.03;102901.22;5241203;27;19939;-91
2024/04/12 11:33:42;;;;;;;;;;;;;;;20.48;55.24;102905.59;5249988;27;19960;-89
2024/04/12 11:36:10;;;;;;;;;;;;;;;20.56;55.15;102898.81;5236662;27;19939;-88
2024/04/12 11:38:39;;;;;;;;;;;;;;;20.60;54.69;102893.66;5239984;27;19932;-90
2024/04/12 11:41:06;;;;;;;;;;;;;;;20.56;55.10;102882.47;5235136;27;19932;-91
2024/04/12 11:43:34;;;;;;;;;;;;;;;20.59;54.64;102881.13;5211848;27;19939;-91
2024/04/12 11:46:01;;;;;;;;;;;;;;;20.56;54.89;102882.47;5241529;27;19931;-90
2024/04/12 11:48:31;;;;;;;;;;;;;;;20.57;54.60;102870.50;5244278;27;19935;-90
2024/04/12 11:50:57;;;;;;;;;;;;;;;20.55;54.58;102872.66;5216742;27;19939;-91
2024/04/12 11:53:22;;;;;;;;;;;;;;;20.55;54.46;102878.13;5236999;27;19960;-89
2024/04/12 11:55:48;;;;;;;;;;;;;;;20.55;54.53;102861.78;5237992;27;20707;-91
2024/04/12 11:58:14;;;;;;;;;;;;;;;20.62;54.61;102865.06;5247922;27;19931;-89
2024/04/12 12:00:40;;;;;;;;;;;;;;;20.70;54.41;102870.03;5243397;27;19932;-87
2024/04/12 12:03:05;;;;;;;;;;;;;;;20.70;54.04;102872.75;5257948;27;19931;-90
2024/04/12 12:05:30;;;;;;;;;;;;;;;20.69;54.04;102878.47;5250492;27;20650;-88
2024/04/12 12:07:56;;;;;;;;;;;;;;;20.69;54.09;102859.41;5247362;27;20002;-89
2024/04/12 12:10:21;;;;;;;;;;;;;;;20.71;53.87;102857.22;5242350;27;19943;-91
2024/04/12 12:12:46;;;;;;;;;;;;;;;20.76;54.25;102851.78;5243762;27;19967;-90
2024/04/12 12:15:14;;;;;;;;;;;;;;;20.75;54.13;102855.59;5244872;27;19932;-89
2024/04/12 12:17:39;;;;;;;;;;;;;;;20.80;53.96;102844.72;5237774;27;19938;-90
2024/04/12 12:20:05;;;;;;;;;;;;;;;20.84;54.11;102847.75;5237649;27;19931;-91
2024/04/12 12:22:30;;;;;;;;;;;;;;;20.87;53.91;102834.41;5234204;27;21018;-92
2024/04/12 12:24:56;;;;;;;;;;;;;;;20.89;53.82;102826.78;5233768;27;19932;-89
2024/04/12 12:27:23;;;;;;;;;;;;;;;20.94;54.07;102812.34;5237917;27;20179;-89
2024/04/12 12:29:51;;;;;;;;;;;;;;;21.00;54.10;102822.16;5245846;27;19945;-89
2024/04/12 12:32:16;;;;;;;;;;;;;;;21.09;53.63;102806.94;5236971;27;19940;-86
2024/04/12 12:34:43;;;;;;;;;;;;;;;21.15;53.70;102815.94;5244425;27;20598;-92
2024/04/12 12:37:09;;;;;;;;;;;;;;;21.21;53.37;102809.44;5252942;27;19939;-87
2024/04/12 12:39:37;;;;;;;;;;;;;;;21.30;53.38;102797.75;5247955;27;19938;-89
2024/04/12 12:42:02;;;;;;;;;;;;;;;21.38;53.57;102799.13;5208538;27;20404;-91
2024/04/12 12:44:31;;;;;;;;;;;;;;;21.49;53.11;102802.69;5245057;27;19999;-90
2024/04/12 12:46:59;;;;;;;;;;;;;;;21.57;53.11;102788.50;5247289;27;19938;-90
2024/04/12 12:49:25;;;;;;;;;;;;;;;21.63;52.69;102788.22;5242778;27;20003;-92
2024/04/12 12:51:51;;;;;;;;;;;;;;;21.62;52.92;102786.59;5232864;27;19939;-88
2024/04/12 12:54:18;;;;;;;;;;;;;;;21.67;52.96;102783.03;5237925;27;19932;-88
2024/04/12 12:56:43;;;;;;;;;;;;;;;21.76;53.03;102777.88;5243186;27;19936;-87
2024/04/12 12:59:09;;;;;;;;;;;;;;;21.84;52.54;102771.84;5246536;27;20438;-89
2024/04/12 13:01:41;;;;;;;;;;;;;;;21.86;52.41;102778.66;5239811;27;19972;-89
2024/04/12 13:04:07;;;;;;;;;;;;;;;21.86;51.80;102783.28;5244984;27;19939;-89
2024/04/12 13:06:34;;;;;;;;;;;;;;;21.80;51.79;102776.22;5238538;27;19968;-90
2024/04/12 13:08:59;;;;;;;;;;;;;;;21.76;51.94;102775.13;5248478;27;19939;-84
2024/04/12 13:11:25;;;;;;;;;;;;;;;21.79;52.09;102775.41;5245763;27;20615;-83
2024/04/12 13:13:50;;;;;;;;;;;;;;;21.85;52.39;102770.75;5241378;27;19936;-87
2024/04/12 13:16:16;;;;;;;;;;;;;;;21.93;51.84;102757.38;5245767;27;19959;-90
2024/04/12 13:18:52;;;;;;;;;;;;;;;22.00;51.86;102755.16;5247724;27;19950;-90
2024/04/12 13:21:18;;;;;;;;;;;;;;;22.03;51.73;102751.88;5241899;27;20317;-88
2024/04/12 13:23:43;;;;;;;;;;;;;;;22.10;51.63;102753.53;5240192;27;20438;-86
2024/04/12 13:26:08;;;;;;;;;;;;;;;22.19;51.46;102746.41;5235083;27;19935;-87
2024/04/12 13:28:34;;;;;;;;;;;;;;;22.19;51.35;102754.59;5239255;27;19944;-88
2024/04/12 13:31:01;;;;;;;;;;;;;;;22.20;51.59;102751.59;5243486;27;19939;-87
2024/04/12 13:33:26;;;;;;;;;;;;;;;22.25;51.38;102745.28;5245776;27;19938;-88
2024/04/12 13:35:52;;;;;;;;;;;;;;;22.32;51.25;102729.44;5249412;27;19939;-90
2024/04/12 13:38:17;;;;;;;;;;;;;;;22.37;50.88;102732.13;5212931;27;20356;-89
2024/04/12 13:40:45;;;;;;;;;;;;;;;22.35;51.46;102731.59;5244087;27;20376;-90
2024/04/12 13:43:14;;;;;;;;;;;;;;;22.43;51.39;102731.00;5237947;27;20002;-89
2024/04/12 13:51:10;;;;;;;;;;;;;;;22.88;50.91;102707.31;5242458;27;19939;-91
2024/04/12 13:53:38;;;;;;;;;;;;;;;22.95;50.64;102710.53;5211848;27;19939;-88
2024/04/12 13:58:58;;;;;;;;;;;;;;;23.04;50.39;102700.63;5244421;27;19968;-89
2024/04/12 14:01:27;;;;;;;;;;;;;;;23.07;49.66;102697.31;5246006;27;19939;-91
2024/04/12 14:04:03;;;;;;;;;;;;;;;22.98;49.58;102688.13;5237615;27;19939;-88
2024/04/12 14:06:34;;;;;;;;;;;;;;;22.95;49.96;102685.94;5244774;27;19999;-87
2024/04/12 14:09:00;;;;;;;;;;;;;;;22.97;50.08;102691.09;5247910;27;20008;-89
2024/04/12 14:11:25;;;;;;;;;;;;;;;23.03;49.99;102688.06;5241789;27;19939;-90
2024/04/12 14:13:50;;;;;;;;;;;;;;;23.03;49.90;102685.34;5238568;27;20599;-84
2024/04/12 14:16:19;;;;;;;;;;;;;;;23.03;49.47;102684.53;5238527;27;19940;-89
2024/04/12 14:18:46;;;;;;;;;;;;;;;22.98;49.06;102674.44;5242054;27;19936;-88
2024/04/12 14:21:14;;;;;;;;;;;;;;;22.97;49.51;102667.31;5241897;27;20006;-89
2024/04/12 14:23:40;;;;;;;;;;;;;;;22.97;49.36;102653.66;5232153;27;19943;-88
2024/04/12 14:26:09;;;;;;;;;;;;;;;22.96;49.11;102659.41;5241887;27;20537;-89
2024/04/12 14:28:34;;;;;;;;;;;;;;;22.91;48.79;102646.59;5240843;27;20834;-89
2024/04/12 14:31:02;;;;;;;;;;;;;;;22.87;49.01;102648.28;5247712;27;19931;-85
2024/04/12 14:33:31;;;;;;;;;;;;;;;22.90;49.18;102647.72;5238224;27;19932;-89